createdAt,value
2022-11-24T03:59:28.437Z,7.30
2022-11-24T04:00:28.497Z,7.30
2022-11-24T04:01:28.691Z,7.50
2022-11-24T04:02:28.785Z,8.30
2022-11-24T04:03:28.857Z,7.30
2022-11-24T04:04:29.011Z,7.50
2022-11-24T04:05:29.134Z,5.20
2022-11-24T04:06:29.291Z,7.40
2022-11-24T04:07:29.493Z,6.30
2022-11-24T04:08:29.552Z,7.70
2022-11-24T04:09:29.701Z,6.70
2022-11-24T04:10:29.827Z,7.50
2022-11-24T04:11:29.976Z,6.60
2022-11-24T04:12:30.126Z,6.40
2022-11-24T04:13:30.246Z,7.20
2022-11-24T04:14:30.341Z,7.60
2022-11-24T04:15:30.454Z,8.60
2022-11-24T04:16:30.592Z,7.00
2022-11-24T04:17:30.685Z,7.70
2022-11-24T04:18:31.754Z,7.10
2022-11-24T04:19:30.905Z,9.40
2022-11-24T04:20:31.004Z,7.80
2022-11-24T04:21:32.076Z,6.80
2022-11-24T04:22:31.242Z,5.60
2022-11-24T04:23:31.416Z,6.00
2022-11-24T04:24:31.744Z,6.90
2022-11-24T04:25:31.698Z,7.50
2022-11-24T04:26:31.794Z,7.00
2022-11-24T04:27:31.933Z,7.50
2022-11-24T04:28:32.046Z,7.80
2022-11-24T04:29:32.206Z,6.40
2022-11-24T04:30:32.385Z,8.00
2022-11-24T04:31:32.586Z,8.30
2022-11-24T04:32:33.606Z,8.30
2022-11-24T04:33:32.791Z,7.20
2022-11-24T04:34:33.218Z,7.40
2022-11-24T04:35:33.116Z,7.20
2022-11-24T04:36:33.199Z,7.20
2022-11-24T04:37:34.307Z,7.80
2022-11-24T04:39:19.882Z,6.70
2022-11-24T04:39:34.659Z,6.80
2022-11-24T04:40:33.764Z,7.60
2022-11-24T04:41:33.914Z,8.20
2022-11-24T04:42:34.020Z,6.60
2022-11-24T04:43:39.104Z,5.40
2022-11-24T04:44:35.807Z,7.70
2022-11-24T04:45:34.430Z,7.50
2022-11-24T04:46:34.530Z,6.10
2022-11-24T04:47:34.651Z,7.70
2022-11-24T04:48:35.682Z,6.30
2022-11-24T04:49:34.869Z,7.40
2022-11-24T04:50:34.979Z,5.40
2022-11-24T04:51:35.076Z,6.80
2022-11-24T04:52:35.257Z,7.80
2022-11-24T04:53:36.300Z,7.70
2022-11-24T04:54:35.848Z,7.20
2022-11-24T04:55:35.633Z,6.30
2022-11-24T04:56:35.720Z,7.50
2022-11-24T04:57:36.836Z,6.70
2022-11-24T04:58:36.049Z,8.40
2022-11-24T04:59:36.271Z,7.10
2022-11-24T05:00:36.333Z,8.10
2022-11-24T05:01:36.476Z,8.90
2022-11-24T05:02:36.569Z,6.60
2022-11-24T05:03:36.724Z,5.60
2022-11-24T05:04:37.285Z,9.20
2022-11-24T05:05:36.979Z,6.20
2022-11-24T05:06:37.078Z,6.10
2022-11-24T05:07:37.235Z,9.40
2022-11-24T05:08:37.448Z,6.30
2022-11-24T05:09:58.394Z,6.00
2022-11-24T05:10:38.646Z,8.20
2022-11-24T05:11:37.733Z,8.20
2022-11-24T05:12:37.819Z,6.50
2022-11-24T05:13:37.967Z,7.20
2022-11-24T05:14:38.129Z,6.30
2022-11-24T05:15:38.288Z,7.70
2022-11-24T05:16:38.617Z,8.00
2022-11-24T05:17:38.477Z,6.20
2022-11-24T05:18:38.648Z,7.00
2022-11-24T05:19:38.765Z,8.20
2022-11-24T05:20:38.937Z,6.40
2022-11-24T05:21:39.164Z,8.00
2022-11-24T05:22:39.255Z,6.10
2022-11-24T05:23:39.313Z,8.10
2022-11-24T05:24:39.540Z,9.20
2022-11-24T05:25:42.406Z,8.30
2022-11-24T05:26:40.707Z,6.80
2022-11-24T05:27:39.833Z,6.90
2022-11-24T05:28:39.960Z,6.40
2022-11-24T05:29:40.103Z,6.60
2022-11-24T05:30:40.260Z,8.30
2022-11-24T05:31:40.419Z,7.30
2022-11-24T05:32:40.542Z,7.60
2022-11-24T05:33:40.715Z,7.90
2022-11-24T05:34:40.807Z,6.00
2022-11-24T05:35:40.971Z,8.20
2022-11-24T05:36:41.156Z,7.80
2022-11-24T05:37:41.287Z,6.70
2022-11-24T05:38:41.362Z,7.60
2022-11-24T05:39:41.454Z,7.40
2022-11-24T05:40:41.673Z,7.50
2022-11-24T05:41:41.732Z,9.00
2022-11-24T05:42:46.577Z,8.00
2022-11-24T05:43:43.042Z,8.50
2022-11-24T05:44:42.169Z,6.90
2022-11-24T05:45:42.311Z,7.50
2022-11-24T05:46:42.515Z,7.30
2022-11-24T05:47:42.575Z,9.10
2022-11-24T05:48:42.710Z,8.00
2022-11-24T05:49:42.831Z,6.80
2022-11-24T05:50:42.970Z,8.50
2022-11-24T05:51:43.082Z,7.70
2022-11-24T05:52:43.256Z,8.00
2022-11-24T05:53:43.324Z,7.80
2022-11-24T05:54:43.463Z,7.10
2022-11-24T05:55:43.618Z,8.40
2022-11-24T05:56:43.773Z,7.30
2022-11-24T05:57:43.903Z,5.70
2022-11-24T05:58:44.080Z,8.20
2022-11-24T05:59:44.178Z,7.30
2022-11-24T06:00:44.360Z,7.50
2022-11-24T06:01:44.608Z,6.90
2022-11-24T06:02:44.663Z,6.10
2022-11-24T06:03:44.741Z,7.30
2022-11-24T06:04:44.891Z,8.10
2022-11-24T06:05:44.968Z,6.10
2022-11-24T06:06:45.128Z,6.10
2022-11-24T06:07:45.346Z,5.80
2022-11-24T06:08:45.440Z,7.20
2022-11-24T06:09:45.542Z,6.30
2022-11-24T06:10:45.676Z,6.50
2022-11-24T06:11:45.824Z,7.20
2022-11-24T06:12:46.010Z,7.10
2022-11-24T06:13:47.099Z,9.10
2022-11-24T06:14:46.242Z,7.40
2022-11-24T06:15:46.445Z,6.90
2022-11-24T06:16:46.563Z,6.30
2022-11-24T06:17:46.713Z,6.40
2022-11-24T06:18:46.808Z,7.90
2022-11-24T06:19:46.928Z,7.90
2022-11-24T06:21:09.249Z,9.10
2022-11-24T06:21:48.129Z,6.40
2022-11-24T06:22:47.255Z,7.20
2022-11-24T06:23:47.415Z,7.90
2022-11-24T06:24:47.568Z,8.10
2022-11-24T06:25:51.534Z,6.60
2022-11-24T06:26:47.855Z,7.80
2022-11-24T06:27:48.904Z,6.90
2022-11-24T06:28:48.175Z,6.30
2022-11-24T06:29:48.291Z,7.00
2022-11-24T06:30:49.051Z,8.60
2022-11-24T06:31:48.620Z,6.60
2022-11-24T06:32:53.839Z,7.30
2022-11-24T06:33:48.815Z,8.50
2022-11-24T06:34:49.065Z,8.00
2022-11-24T06:35:49.121Z,7.70
2022-11-24T06:36:49.263Z,7.70
2022-11-24T06:37:49.334Z,6.60
2022-11-24T06:38:49.478Z,8.10
2022-11-24T06:39:49.614Z,7.30
2022-11-24T06:40:53.402Z,7.80
2022-11-24T06:41:49.772Z,6.60
2022-11-24T06:42:53.675Z,7.00
2022-11-24T06:43:50.091Z,6.90
2022-11-24T06:44:50.213Z,7.60
2022-11-24T06:45:50.410Z,6.40
2022-11-24T06:46:51.427Z,6.10
2022-11-24T06:47:50.635Z,7.80
2022-11-24T06:48:50.703Z,7.90
2022-11-24T06:49:50.823Z,7.50
2022-11-24T06:50:51.167Z,6.20
2022-11-24T06:51:51.223Z,7.00
2022-11-24T06:52:51.276Z,6.90
2022-11-24T06:53:51.500Z,7.90
2022-11-24T06:54:51.522Z,7.50
2022-11-24T06:55:51.694Z,7.70
2022-11-24T06:56:51.785Z,7.40
2022-11-24T06:57:51.930Z,7.30
2022-11-24T06:58:52.132Z,7.20
2022-11-24T06:59:52.233Z,7.70
2022-11-24T07:00:52.425Z,7.60
2022-11-24T07:01:52.520Z,6.80
2022-11-24T07:02:52.660Z,7.50
2022-11-24T07:03:52.809Z,7.80
2022-11-24T07:04:53.710Z,7.80
2022-11-24T07:05:53.070Z,8.00
2022-11-24T07:06:53.071Z,8.60
2022-11-24T07:07:53.281Z,7.10
2022-11-24T07:08:53.419Z,7.10
2022-11-24T07:09:53.544Z,6.70
2022-11-24T07:10:54.408Z,7.80
2022-11-24T07:11:54.034Z,7.70
2022-11-24T07:12:54.703Z,6.70
2022-11-24T07:13:59.610Z,7.70
2022-11-24T07:14:56.057Z,8.90
2022-11-24T07:15:54.553Z,6.90
2022-11-24T07:16:54.608Z,9.00
2022-11-24T07:17:54.612Z,7.40
2022-11-24T07:18:54.760Z,7.60
2022-11-24T07:19:54.837Z,7.30
2022-11-24T07:20:55.002Z,9.20
2022-11-24T07:21:55.968Z,7.00
2022-11-24T07:22:56.271Z,6.80
2022-11-24T07:23:56.242Z,8.30
2022-11-24T07:24:55.691Z,8.70
2022-11-24T07:25:55.776Z,8.60
2022-11-24T07:26:56.729Z,7.80
2022-11-24T07:27:56.127Z,9.40
2022-11-24T07:28:56.383Z,8.00
2022-11-24T07:29:56.296Z,8.60
2022-11-24T07:30:56.445Z,8.50
2022-11-24T07:32:00.785Z,8.00
2022-11-24T07:32:57.765Z,6.90
2022-11-24T07:33:56.929Z,9.60
2022-11-24T07:34:57.026Z,9.90
2022-11-24T07:35:57.874Z,7.30
2022-11-24T07:36:57.296Z,9.10
2022-11-24T07:37:57.416Z,7.30
2022-11-24T07:38:57.690Z,8.60
2022-11-24T07:39:57.674Z,7.20
2022-11-24T07:40:57.846Z,6.00
2022-11-24T07:41:57.904Z,8.10
2022-11-24T07:42:58.029Z,7.90
2022-11-24T07:43:58.174Z,9.10
2022-11-24T07:44:58.425Z,7.80
2022-11-24T07:45:58.527Z,7.80
2022-11-24T07:46:58.555Z,7.60
2022-11-24T07:47:58.789Z,7.00
2022-11-24T07:48:58.867Z,7.70
2022-11-24T07:49:59.025Z,7.60
2022-11-24T07:50:59.246Z,9.00
2022-11-24T07:51:59.238Z,7.60
2022-11-24T07:52:59.541Z,8.10
2022-11-24T07:53:59.705Z,8.60
2022-11-24T07:55:00.403Z,8.90
2022-11-24T07:55:59.951Z,8.40
2022-11-24T07:57:00.733Z,8.50
2022-11-24T07:58:00.916Z,7.80
2022-11-24T07:59:01.077Z,7.60
2022-11-24T08:00:00.422Z,7.90
2022-11-24T08:01:00.487Z,7.90
2022-11-24T08:02:00.695Z,8.40
2022-11-24T08:03:01.699Z,8.30
2022-11-24T08:04:00.963Z,8.70
2022-11-24T08:05:01.035Z,8.10
2022-11-24T08:07:02.276Z,7.50
2022-11-24T08:08:01.350Z,9.80
2022-11-24T08:09:01.533Z,7.40
2022-11-24T08:10:01.747Z,10.60
2022-11-24T08:11:01.781Z,7.20
2022-11-24T08:12:01.901Z,7.80
2022-11-24T08:13:02.043Z,9.70
2022-11-24T08:14:02.170Z,7.30
2022-11-24T08:15:05.361Z,8.40
2022-11-24T08:16:03.494Z,8.80
2022-11-24T08:17:02.773Z,9.00
2022-11-24T08:18:09.770Z,9.00
2022-11-24T08:19:20.774Z,8.80
2022-11-24T08:20:15.329Z,9.10
2022-11-24T08:21:03.180Z,9.10
2022-11-24T08:22:20.380Z,9.80
2022-11-24T08:23:03.488Z,8.30
2022-11-24T08:24:03.580Z,8.10
2022-11-24T08:25:03.759Z,9.40
2022-11-24T08:26:03.829Z,8.00
2022-11-24T08:27:04.072Z,8.30
2022-11-24T08:28:04.107Z,8.40
2022-11-24T08:29:04.229Z,8.20
2022-11-24T08:30:04.364Z,7.60
2022-11-24T08:31:04.420Z,7.90
2022-11-24T08:32:04.659Z,9.00
2022-11-24T08:33:04.749Z,10.30
2022-11-24T08:34:04.836Z,9.50
2022-11-24T08:35:13.880Z,8.10
2022-11-24T08:36:06.049Z,8.60
2022-11-24T08:37:05.222Z,10.60
2022-11-24T08:38:05.378Z,8.50
2022-11-24T08:39:05.529Z,8.90
2022-11-24T08:40:06.087Z,7.30
2022-11-24T08:41:06.370Z,8.30
2022-11-24T08:42:06.044Z,8.00
2022-11-24T08:43:06.085Z,7.40
2022-11-24T08:44:07.234Z,8.00
2022-11-24T08:45:19.853Z,8.20
2022-11-24T08:46:07.637Z,8.20
2022-11-24T08:47:06.655Z,7.60
2022-11-24T08:48:06.827Z,7.10
2022-11-24T08:49:07.587Z,8.80
2022-11-24T08:50:07.113Z,7.20
2022-11-24T08:51:07.264Z,8.10
2022-11-24T08:52:07.358Z,7.70
2022-11-24T08:53:07.567Z,8.90
2022-11-24T08:54:07.683Z,8.70
2022-11-24T08:55:07.784Z,8.40
2022-11-24T08:56:07.875Z,8.40
2022-11-24T08:57:07.995Z,7.80
2022-11-24T08:58:08.212Z,6.90
2022-11-24T08:59:08.288Z,7.40
2022-11-24T09:00:08.418Z,7.50
2022-11-24T09:01:09.521Z,9.30
2022-11-24T09:02:08.583Z,9.10
2022-11-24T09:03:09.403Z,8.60
2022-11-24T09:04:09.017Z,9.10
2022-11-24T09:05:43.326Z,8.60
2022-11-24T09:06:10.214Z,8.20
2022-11-24T09:07:09.437Z,7.60
2022-11-24T09:08:09.680Z,8.00
2022-11-24T09:09:09.626Z,8.30
2022-11-24T09:10:09.760Z,9.80
2022-11-24T09:11:09.882Z,7.40
2022-11-24T09:12:14.345Z,8.00
2022-11-24T09:13:10.273Z,8.60
2022-11-24T09:14:11.258Z,8.70
2022-11-24T09:15:10.563Z,8.80
2022-11-24T09:16:10.670Z,8.20
2022-11-24T09:17:10.896Z,8.80
2022-11-24T09:18:10.909Z,7.40
2022-11-24T09:19:11.071Z,9.40
2022-11-24T09:20:11.161Z,7.60
2022-11-24T09:21:11.343Z,7.00
2022-11-24T09:22:11.729Z,8.20
2022-11-24T09:23:12.502Z,8.40
2022-11-24T09:24:11.861Z,6.30
2022-11-24T09:25:12.012Z,8.20
2022-11-24T09:26:11.961Z,9.60
2022-11-24T09:27:13.198Z,10.30
2022-11-24T09:28:12.239Z,7.80
2022-11-24T09:29:12.673Z,7.90
2022-11-24T09:30:12.490Z,8.00
2022-11-24T09:31:12.698Z,6.00
2022-11-24T09:32:13.618Z,6.70
2022-11-24T09:33:12.930Z,8.80
2022-11-24T09:34:13.031Z,6.70
2022-11-24T09:35:13.419Z,6.70
2022-11-24T09:36:13.304Z,7.10
2022-11-24T09:37:13.451Z,7.70
2022-11-24T09:38:13.587Z,6.50
2022-11-24T09:39:13.837Z,6.70
2022-11-24T09:40:13.868Z,6.20
2022-11-24T09:41:14.011Z,6.60
2022-11-24T09:42:14.138Z,6.70
2022-11-24T09:43:14.315Z,6.60
2022-11-24T09:44:15.300Z,6.60
2022-11-24T09:45:15.443Z,8.10
2022-11-24T09:46:14.748Z,7.50
2022-11-24T09:47:14.817Z,6.80
2022-11-24T09:48:15.027Z,7.00
2022-11-24T09:49:15.132Z,5.10
2022-11-24T09:50:15.339Z,6.60
2022-11-24T09:51:15.387Z,6.20
2022-11-24T09:52:15.536Z,6.90
2022-11-24T09:53:16.480Z,6.30
2022-11-24T09:54:16.634Z,5.60
2022-11-24T09:55:16.788Z,6.40
2022-11-24T09:56:16.225Z,7.10
2022-11-24T09:57:16.099Z,6.00
2022-11-24T09:58:17.006Z,6.00
2022-11-24T09:59:16.369Z,5.40
2022-11-24T10:00:17.326Z,5.80
2022-11-24T10:01:16.781Z,7.40
2022-11-24T10:02:16.615Z,6.10
2022-11-24T10:13:40.190Z,4.80
2022-11-24T10:14:40.176Z,6.90
2022-11-24T10:15:40.402Z,5.80
2022-11-24T10:16:40.485Z,5.40
2022-11-24T10:17:40.571Z,6.60
2022-11-24T10:18:40.684Z,6.30
2022-11-24T10:19:41.242Z,5.80
2022-11-24T10:20:40.994Z,7.90
2022-11-24T10:21:41.940Z,5.50
2022-11-24T10:22:41.280Z,5.40
2022-11-24T10:23:41.349Z,6.00
2022-11-24T10:24:41.520Z,6.90
2022-11-24T10:25:41.629Z,5.40
2022-11-24T10:26:41.924Z,5.50
2022-11-24T10:27:41.856Z,4.90
2022-11-24T10:28:42.024Z,5.80
2022-11-24T10:29:42.106Z,6.50
2022-11-24T10:30:42.318Z,5.60
2022-11-24T10:31:42.571Z,5.40
2022-11-24T10:32:42.603Z,5.50
2022-11-24T10:33:42.668Z,5.60
2022-11-24T10:34:42.766Z,5.80
2022-11-24T10:35:43.039Z,5.00
2022-11-24T10:36:43.034Z,5.70
2022-11-24T10:37:43.201Z,4.70
2022-11-24T10:38:43.307Z,5.10
2022-11-24T10:39:43.421Z,6.30
2022-11-24T10:40:59.052Z,5.50
2022-11-24T10:41:44.733Z,5.80
2022-11-24T10:42:43.866Z,5.30
2022-11-24T10:43:44.036Z,6.40
2022-11-24T10:44:44.130Z,4.90
2022-11-24T10:45:44.378Z,4.90
2022-11-24T10:46:44.495Z,5.00
2022-11-24T10:47:44.538Z,5.90
2022-11-24T10:48:45.486Z,5.60
2022-11-24T10:49:44.796Z,5.50
2022-11-24T10:50:44.975Z,5.20
2022-11-24T10:51:45.074Z,4.90
2022-11-24T10:52:46.084Z,5.40
2022-11-24T10:53:46.041Z,4.80
2022-11-24T10:54:46.199Z,5.00
2022-11-24T10:55:46.353Z,5.70
2022-11-24T10:56:46.725Z,5.90
2022-11-24T10:57:47.036Z,4.50
2022-11-24T10:58:46.900Z,5.30
2022-11-24T10:59:46.193Z,5.90
2022-11-24T11:00:46.393Z,5.30
2022-11-24T11:01:47.580Z,6.00
2022-11-24T11:02:47.525Z,5.20
2022-11-24T11:03:47.634Z,5.50
2022-11-24T11:04:47.518Z,4.30
2022-11-24T11:05:47.358Z,4.40
2022-11-24T11:06:48.113Z,4.70
2022-11-24T11:07:47.472Z,4.90
2022-11-24T11:08:48.177Z,4.80
2022-11-24T11:09:48.197Z,5.00
2022-11-24T11:10:47.707Z,4.20
2022-11-24T11:11:48.673Z,5.40
2022-11-24T11:12:48.816Z,5.50
2022-11-24T11:13:48.072Z,5.40
2022-11-24T11:14:48.243Z,4.30
2022-11-24T11:15:48.477Z,4.00
2022-11-24T11:16:48.473Z,4.30
2022-11-24T11:17:48.582Z,4.20
2022-11-24T11:18:48.752Z,4.60
2022-11-24T11:19:53.259Z,4.40
2022-11-24T11:20:50.109Z,4.50
2022-11-24T11:21:49.755Z,4.80
2022-11-24T11:22:49.442Z,4.60
2022-11-24T11:23:49.551Z,4.40
2022-11-24T11:24:49.653Z,5.20
2022-11-24T11:25:49.836Z,5.20
2022-11-24T11:26:50.552Z,4.90
2022-11-24T11:27:50.175Z,5.40
2022-11-24T11:28:50.271Z,4.50
2022-11-24T11:31:22.770Z,4.10
2022-11-24T11:34:15.865Z,4.30
2022-11-24T11:34:51.795Z,5.40
2022-11-24T11:35:50.909Z,2.90
2022-11-24T11:36:51.894Z,3.80
2022-11-24T11:37:52.155Z,4.90
2022-11-24T11:38:52.211Z,4.20
2022-11-24T11:39:52.418Z,4.50
2022-11-24T11:40:52.534Z,4.20
2022-11-24T11:41:51.821Z,3.10
2022-11-24T11:43:02.383Z,4.30
2022-11-24T11:43:53.067Z,3.10
2022-11-24T11:44:52.209Z,4.20
2022-11-24T11:45:52.358Z,5.00
2022-11-24T11:46:52.460Z,5.00
2022-11-24T11:47:52.582Z,4.40
2022-11-24T11:48:52.748Z,5.60
2022-11-24T11:49:52.917Z,3.10
2022-11-24T11:51:22.457Z,3.70
2022-11-24T11:51:54.156Z,4.60
2022-11-24T11:52:53.221Z,4.70
2022-11-24T11:53:53.499Z,4.00
2022-11-24T11:54:53.526Z,4.20
2022-11-24T11:55:53.716Z,4.40
2022-11-24T11:56:54.274Z,3.40
2022-11-24T11:57:55.064Z,4.40
2022-11-24T11:58:56.180Z,3.40
2022-11-24T11:59:55.056Z,4.20
2022-11-24T12:00:55.366Z,5.20
2022-11-24T12:01:55.386Z,3.60
2022-11-24T12:02:55.448Z,3.50
2022-11-24T12:03:54.949Z,4.30
2022-11-24T12:04:55.917Z,3.80
2022-11-24T12:05:55.745Z,3.30
2022-11-24T12:06:56.054Z,3.50
2022-11-24T12:07:56.474Z,3.30
2022-11-24T12:09:19.213Z,3.20
2022-11-24T12:09:57.090Z,3.10
2022-11-24T12:10:56.349Z,4.00
2022-11-24T12:11:57.291Z,3.30
2022-11-24T12:12:56.922Z,3.40
2022-11-24T12:13:57.196Z,4.10
2022-11-24T12:14:56.578Z,2.80
2022-11-24T12:15:58.114Z,4.60
2022-11-24T12:16:56.991Z,4.40
2022-11-24T12:17:58.708Z,3.00
2022-11-24T12:18:58.264Z,4.30
2022-11-24T12:19:57.081Z,4.30
2022-11-24T12:20:57.113Z,3.20
2022-11-24T12:21:57.253Z,3.60
2022-11-24T12:22:57.365Z,4.20
2022-11-24T12:23:57.604Z,3.90
2022-11-24T12:24:57.744Z,4.60
2022-11-24T12:25:57.766Z,3.20
2022-11-24T12:26:58.944Z,4.50
2022-11-24T12:27:59.060Z,4.10
2022-11-24T12:28:58.472Z,3.90
2022-11-24T12:29:58.470Z,3.00
2022-11-24T12:30:58.513Z,4.30
2022-11-24T12:31:58.605Z,4.00
2022-11-24T12:32:58.701Z,4.50
2022-11-24T12:34:01.340Z,3.60
2022-11-24T12:34:58.972Z,3.10
2022-11-24T12:35:59.151Z,3.30
2022-11-24T12:36:59.391Z,3.60
2022-11-24T12:37:59.425Z,3.50
2022-11-24T12:38:59.560Z,4.50
2022-11-24T12:39:59.624Z,4.10
2022-11-24T12:41:25.644Z,3.40
2022-11-24T12:42:00.904Z,3.90
2022-11-24T12:43:00.001Z,4.30
2022-11-24T12:44:00.237Z,3.80
2022-11-24T12:45:00.285Z,4.00
2022-11-24T12:46:00.479Z,3.20
2022-11-24T12:47:00.628Z,3.70
2022-11-24T12:48:00.722Z,4.60
2022-11-24T12:49:00.903Z,3.10
2022-11-24T12:50:00.953Z,3.30
2022-11-24T12:51:01.189Z,4.20
2022-11-24T12:52:01.176Z,4.10
2022-11-24T12:53:01.516Z,3.90
2022-11-24T12:54:01.576Z,3.60
2022-11-24T12:55:01.517Z,4.50
2022-11-24T12:56:01.639Z,4.90
2022-11-24T12:57:01.788Z,3.90
2022-11-24T12:58:06.275Z,4.50
2022-11-24T12:59:03.039Z,4.90
2022-11-24T13:00:02.208Z,3.80
2022-11-24T13:01:02.323Z,5.20
2022-11-24T13:02:02.596Z,3.50
2022-11-24T13:03:03.080Z,3.70
2022-11-24T13:04:02.747Z,4.10
2022-11-24T13:05:08.049Z,3.10
2022-11-24T13:07:27.783Z,3.60
2022-11-24T13:08:23.700Z,4.60
2022-11-24T13:09:23.809Z,4.10
2022-11-24T13:10:40.437Z,4.30
2022-11-24T13:11:25.165Z,4.00
2022-11-24T13:12:24.235Z,4.60
2022-11-24T13:13:24.311Z,4.90
2022-11-24T13:14:24.433Z,2.80
2022-11-24T13:15:45.113Z,4.00
2022-11-24T13:16:36.287Z,3.90
2022-11-24T13:17:33.736Z,3.30
2022-11-24T13:18:26.033Z,4.00
2022-11-24T13:19:25.179Z,3.50
2022-11-24T13:20:25.239Z,4.50
2022-11-24T13:21:25.337Z,4.40
2022-11-24T13:22:25.589Z,4.00
2022-11-24T13:23:25.627Z,4.10
2022-11-24T13:24:25.774Z,4.20
2022-11-24T13:25:25.851Z,3.30
2022-11-24T13:26:25.957Z,3.60
2022-11-24T13:27:26.148Z,4.90
2022-11-24T13:28:53.941Z,4.20
2022-11-24T13:29:27.444Z,3.10
2022-11-24T13:30:26.586Z,5.00
2022-11-24T13:31:26.821Z,3.60
2022-11-24T13:32:26.895Z,3.80
2022-11-24T13:33:27.327Z,3.00
2022-11-24T13:34:27.210Z,5.00
2022-11-24T13:35:27.296Z,3.50
2022-11-24T13:36:27.416Z,4.20
2022-11-24T13:37:35.259Z,3.50
2022-11-24T13:38:29.316Z,3.90
2022-11-24T13:39:27.864Z,4.50
2022-11-24T13:40:27.995Z,5.00
2022-11-24T13:41:28.961Z,4.20
2022-11-24T13:42:41.587Z,6.10
2022-11-24T13:43:29.436Z,4.80
2022-11-24T13:44:28.516Z,4.00
2022-11-24T13:45:28.644Z,5.10
2022-11-24T13:46:28.855Z,4.10
2022-11-24T13:47:28.927Z,4.20
2022-11-24T13:48:29.077Z,4.80
2022-11-24T13:49:29.247Z,3.90
2022-11-24T13:50:29.366Z,4.10
2022-11-24T13:51:29.454Z,3.80
2022-11-24T13:52:29.542Z,6.40
2022-11-24T13:53:29.702Z,4.70
2022-11-24T13:54:29.825Z,5.30
2022-11-24T13:55:29.963Z,4.40
2022-11-24T13:56:30.146Z,5.30
2022-11-24T13:57:30.274Z,3.90
2022-11-24T13:58:30.402Z,5.40
2022-11-24T13:59:30.553Z,3.50
2022-11-24T14:00:30.710Z,4.80
2022-11-24T14:01:31.047Z,4.40
2022-11-24T14:02:31.020Z,4.20
2022-11-24T14:03:31.103Z,4.50
2022-11-24T14:04:43.235Z,4.80
2022-11-24T14:05:32.285Z,4.20
2022-11-24T14:06:31.560Z,4.50
2022-11-24T14:07:32.646Z,4.10
2022-11-24T14:08:31.805Z,5.80
2022-11-24T14:09:32.524Z,4.20
2022-11-24T14:10:32.796Z,5.80
2022-11-24T14:11:32.204Z,4.40
2022-11-24T14:12:32.321Z,4.90
2022-11-24T14:13:32.466Z,3.60
2022-11-24T14:14:32.779Z,4.20
2022-11-24T14:15:32.760Z,4.30
2022-11-24T14:16:32.855Z,4.30
2022-11-24T14:17:33.032Z,5.30
2022-11-24T14:18:33.222Z,4.70
2022-11-24T14:19:33.303Z,3.40
2022-11-24T14:20:33.465Z,4.40
2022-11-24T14:21:33.540Z,4.60
2022-11-24T14:22:33.696Z,5.10
2022-11-24T14:23:33.761Z,4.40
2022-11-24T14:24:39.820Z,5.70
2022-11-24T14:25:35.070Z,4.90
2022-11-24T14:26:34.283Z,4.00
2022-11-24T14:27:34.483Z,3.80
2022-11-24T14:28:34.636Z,5.30
2022-11-24T14:29:34.637Z,4.10
2022-11-24T14:30:34.854Z,5.30
2022-11-24T14:31:34.928Z,4.40
2022-11-24T14:32:35.070Z,3.40
2022-11-24T14:33:35.088Z,4.10
2022-11-24T14:34:35.746Z,3.50
2022-11-24T14:35:35.467Z,4.60
2022-11-24T14:36:35.548Z,3.80
2022-11-24T14:37:35.691Z,4.60
2022-11-24T14:38:35.837Z,5.70
2022-11-24T14:39:35.938Z,4.60
2022-11-24T14:40:36.072Z,4.50
2022-11-24T14:41:36.185Z,5.40
2022-11-24T14:42:36.378Z,4.30
2022-11-24T14:43:36.501Z,4.90
2022-11-24T14:44:36.831Z,4.60
2022-11-24T14:45:36.695Z,4.40
2022-11-24T14:46:36.808Z,6.80
2022-11-24T14:47:36.955Z,5.50
2022-11-24T14:48:37.055Z,5.10
2022-11-24T14:49:37.186Z,4.20
2022-11-24T14:50:37.409Z,3.10
2022-11-24T14:51:38.393Z,4.40
2022-11-24T14:52:37.655Z,5.30
2022-11-24T14:53:37.735Z,4.10
2022-11-24T14:54:37.925Z,4.60
2022-11-24T14:55:38.053Z,4.50
2022-11-24T14:56:38.191Z,4.50
2022-11-24T14:57:39.274Z,4.50
2022-11-24T14:58:42.215Z,4.60
2022-11-24T14:59:38.605Z,4.80
2022-11-24T15:00:38.801Z,3.90
2022-11-24T15:01:38.962Z,5.40
2022-11-24T15:02:39.100Z,4.00
2022-11-24T15:03:39.204Z,5.40
2022-11-24T15:05:01.541Z,4.40
2022-11-24T15:05:40.503Z,5.10
2022-11-24T15:06:39.668Z,3.40
2022-11-24T15:07:39.884Z,3.90
2022-11-24T15:08:39.907Z,4.90
2022-11-24T15:09:39.996Z,3.90
2022-11-24T15:10:40.064Z,4.80
2022-11-24T15:11:40.173Z,5.20
2022-11-24T15:12:40.358Z,3.60
2022-11-24T15:13:40.487Z,4.80
2022-11-24T15:14:40.632Z,4.30
2022-11-24T15:15:40.755Z,4.50
2022-11-24T15:16:41.046Z,4.90
2022-11-24T15:17:41.747Z,3.70
2022-11-24T15:18:41.216Z,3.30
2022-11-24T15:19:41.343Z,5.40
2022-11-24T15:20:41.488Z,5.20
2022-11-24T15:21:41.613Z,5.30
2022-11-24T15:22:41.725Z,5.20
2022-11-24T15:23:41.798Z,3.20
2022-11-24T15:24:41.951Z,4.80
2022-11-24T15:25:42.013Z,5.00
2022-11-24T15:26:42.527Z,3.50
2022-11-24T15:27:42.314Z,6.20
2022-11-24T15:28:42.420Z,4.50
2022-11-24T15:29:42.620Z,4.60
2022-11-24T15:30:42.683Z,4.10
2022-11-24T15:31:46.473Z,5.40
2022-11-24T15:32:43.971Z,3.90
2022-11-24T15:33:43.079Z,4.80
2022-11-24T15:34:43.220Z,5.30
2022-11-24T15:35:43.399Z,3.70
2022-11-24T15:36:43.583Z,4.90
2022-11-24T15:37:43.742Z,5.10
2022-11-24T15:38:43.762Z,5.00
2022-11-24T15:39:44.010Z,5.60
2022-11-24T15:40:44.081Z,3.60
2022-11-24T15:41:44.178Z,3.60
2022-11-24T15:42:44.345Z,4.90
2022-11-24T15:43:44.580Z,4.80
2022-11-24T15:44:44.660Z,5.00
2022-11-24T15:45:44.844Z,5.10
2022-11-24T15:46:45.072Z,4.10
2022-11-24T15:47:45.069Z,5.20
2022-11-24T15:48:45.191Z,4.80
2022-11-24T15:49:45.360Z,5.20
2022-11-24T15:50:45.439Z,4.60
2022-11-24T15:51:45.743Z,5.50
2022-11-24T15:52:45.769Z,5.20
2022-11-24T15:53:45.938Z,5.20
2022-11-24T15:54:46.749Z,5.40
2022-11-24T15:55:47.118Z,5.00
2022-11-24T15:56:46.375Z,5.20
2022-11-24T15:57:46.425Z,5.80
2022-11-24T15:58:46.594Z,3.40
2022-11-24T15:59:46.690Z,4.60
2022-11-24T16:00:47.476Z,5.10
2022-11-24T16:01:47.851Z,5.20
2022-11-24T16:12:53.510Z,5.90
2022-11-24T16:13:53.935Z,4.60
2022-11-24T16:14:52.932Z,4.70
2022-11-24T16:15:53.086Z,4.80
2022-11-24T16:16:54.127Z,6.70
2022-11-24T16:17:53.374Z,4.70
2022-11-24T16:18:53.477Z,6.00
2022-11-24T16:20:00.240Z,4.80
2022-11-24T16:20:54.671Z,6.30
2022-11-24T16:21:53.843Z,4.20
2022-11-24T16:22:53.948Z,5.20
2022-11-24T16:23:54.175Z,5.10
2022-11-24T16:24:54.322Z,5.80
2022-11-24T16:25:54.389Z,5.80
2022-11-24T16:26:55.333Z,5.00
2022-11-24T16:27:54.621Z,6.60
2022-11-24T16:28:54.727Z,6.20
2022-11-24T16:29:54.849Z,5.20
2022-11-24T16:30:55.036Z,5.70
2022-11-24T16:31:55.237Z,5.50
2022-11-24T16:32:55.330Z,7.20
2022-11-24T16:33:55.656Z,6.40
2022-11-24T16:34:56.069Z,6.20
2022-11-24T16:35:55.676Z,5.00
2022-11-24T16:36:55.884Z,5.60
2022-11-24T16:37:55.973Z,5.60
2022-11-24T16:38:56.144Z,6.10
2022-11-24T16:39:56.266Z,5.70
2022-11-24T16:40:56.541Z,6.60
2022-11-24T16:41:56.526Z,5.80
2022-11-24T16:42:56.675Z,6.50
2022-11-24T16:43:56.834Z,6.70
2022-11-24T16:44:56.933Z,7.20
2022-11-24T16:45:57.110Z,5.50
2022-11-24T16:46:57.206Z,6.30
2022-11-24T16:47:57.294Z,7.00
2022-11-24T16:48:57.464Z,7.10
2022-11-24T16:49:57.629Z,4.80
2022-11-24T16:50:57.654Z,5.50
2022-11-24T16:51:57.845Z,5.90
2022-11-24T16:52:57.952Z,5.90
2022-11-24T16:53:58.083Z,5.70
2022-11-24T16:54:59.148Z,6.00
2022-11-24T16:55:58.313Z,6.20
2022-11-24T16:56:58.526Z,4.80
2022-11-24T16:57:58.604Z,6.30
2022-11-24T16:58:58.761Z,7.20
2022-11-24T16:59:58.922Z,7.30
2022-11-24T17:00:59.103Z,7.10
2022-11-24T17:02:00.296Z,7.70
2022-11-24T17:02:59.374Z,8.00
2022-11-24T17:03:59.514Z,7.40
2022-11-24T17:04:59.722Z,8.20
2022-11-24T17:05:59.870Z,7.40
2022-11-24T17:07:00.000Z,6.80
2022-11-24T17:08:00.150Z,7.70
2022-11-24T17:09:00.221Z,7.00
2022-11-24T17:10:00.428Z,7.40
2022-11-24T17:11:00.520Z,7.50
2022-11-24T17:12:00.688Z,7.60
2022-11-24T17:13:00.855Z,8.10
2022-11-24T17:14:00.931Z,7.70
2022-11-24T17:15:31.271Z,8.30
2022-11-24T17:16:02.297Z,7.20
2022-11-24T17:17:01.456Z,6.40
2022-11-24T17:18:23.631Z,7.30
2022-11-24T17:19:02.656Z,7.70
2022-11-24T17:20:01.820Z,8.20
2022-11-24T17:21:07.767Z,7.20
2022-11-24T17:22:03.082Z,8.70
2022-11-24T17:23:02.257Z,7.00
2022-11-24T17:24:02.333Z,8.90
2022-11-24T17:25:02.516Z,8.20
2022-11-24T17:26:02.618Z,7.20
2022-11-24T17:27:02.710Z,7.60
2022-11-24T17:28:02.915Z,7.20
2022-11-24T17:29:02.999Z,7.60
2022-11-24T17:30:03.089Z,8.30
2022-11-24T17:31:03.236Z,8.00
2022-11-24T17:32:03.524Z,6.80
2022-11-24T17:33:03.508Z,7.70
2022-11-24T17:34:03.680Z,7.00
2022-11-24T17:35:03.844Z,8.80
2022-11-24T17:36:03.908Z,7.70
2022-11-24T17:37:04.078Z,7.60
2022-11-24T17:38:04.166Z,7.80
2022-11-24T17:39:04.334Z,7.40
2022-11-24T17:40:27.307Z,7.70
2022-11-24T17:41:05.598Z,7.40
2022-11-24T17:42:04.737Z,7.50
2022-11-24T17:43:04.887Z,7.90
2022-11-24T17:44:05.039Z,8.10
2022-11-24T17:45:05.247Z,7.40